Terminal Aerodrome Forecast
Issued by NWS Twin Cities, MN

Home | Current Version | Previous Version | Graphics & Text | Print | Product List | Glossary On
Versions: 1 2 3 4 5 6 7 8 9 10 11 12 13 14 15
000
FTUS43 KMPX 211720
TAFEAU
TAF
KEAU 211720Z 2118/2218 14009KT P6SM SCT015
      TEMPO 2118/2119 BKN010
     FM212200 14009KT P6SM BKN035
     FM220200 15008KT P6SM SCT050
     FM220900 16005KT 4SM BR SCT250
     FM221400 18010KT P6SM SCT250=

USA.gov is the U.S. government's official web portal to all federal, state and local government web resources and services.